Time;durP1;ratioP1;P1;durP2;ratioP2;P2;SDS_P1;SDS_P2;PMS_P1;PMS_P2;Temp;Humidity;BMP_temperature;BMP_pressure;BME280_temperature;BME280_humidity;BME280_pressure;Samples;Min_cycle;Max_cycle;Signal;HPM_P1;HPM_P2
2021/01/16 06:29:28;;;;;;;29.90;7.50;;;;;;;;;;1787722;79;23437;-66
2021/01/16 06:31:55;;;;;;;29.50;8.00;;;;;;;;;;1762520;80;21682;-66
2021/01/16 06:34:26;;;;;;;31.30;8.55;;;;;;;;;;1760068;80;21180;-65
2021/01/16 06:36:51;;;;;;;20.62;7.67;;;;;;;;;;1765640;80;21226;-67
2021/01/16 06:40:55;;;;;;;21.60;7.92;;;;;;;;;;1800409;78;23070;-63
2021/01/16 06:43:23;;;;;;;22.17;7.35;;;;;;;;;;1788545;80;21285;-65
2021/01/16 06:45:49;;;;;;;24.87;7.45;;;;;;;;;;1790984;80;21175;-63
2021/01/16 06:48:15;;;;;;;21.10;7.00;;;;;;;;;;1775043;80;21598;-64
2021/01/16 06:50:42;;;;;;;20.27;6.97;;;;;;;;;;1760685;81;21175;-71
2021/01/16 06:53:10;;;;;;;20.05;6.95;;;;;;;;;;1761056;81;21147;-65
2021/01/16 06:55:36;;;;;;;18.50;6.22;;;;;;;;;;1778499;80;21166;-66
2021/01/16 06:58:15;;;;;;;15.93;6.45;;;;;;;;;;1761008;80;21548;-63
2021/01/16 07:00:42;;;;;;;17.57;6.72;;;;;;;;;;1789258;80;21167;-65
2021/01/16 07:03:08;;;;;;;18.60;7.25;;;;;;;;;;1781213;80;21595;-64
2021/01/16 07:05:34;;;;;;;14.80;6.95;;;;;;;;;;1760999;80;21175;-63
2021/01/16 07:08:00;;;;;;;19.05;6.50;;;;;;;;;;1791906;80;21322;-64
2021/01/16 07:10:30;;;;;;;13.40;6.40;;;;;;;;;;1790677;80;21607;-64
2021/01/16 07:12:54;;;;;;;17.55;6.65;;;;;;;;;;1791218;80;21575;-64
2021/01/16 07:15:21;;;;;;;12.82;5.60;;;;;;;;;;1791482;80;21156;-64
2021/01/16 07:17:47;;;;;;;13.98;6.37;;;;;;;;;;1791793;80;21769;-64
2021/01/16 07:20:13;;;;;;;14.47;5.60;;;;;;;;;;1791899;80;21176;-64
2021/01/16 07:22:43;;;;;;;12.33;6.30;;;;;;;;;;1791752;80;21155;-63
2021/01/16 07:25:10;;;;;;;13.22;5.10;;;;;;;;;;1791840;80;21603;-63
2021/01/16 07:27:36;;;;;;;11.28;6.05;;;;;;;;;;1791737;80;21132;-64
2021/01/16 07:30:03;;;;;;;13.45;5.97;;;;;;;;;;1791868;80;21147;-64
2021/01/16 07:32:39;;;;;;;11.70;5.70;;;;;;;;;;1791871;80;21555;-64
2021/01/16 07:35:09;;;;;;;12.58;5.70;;;;;;;;;;1791937;80;21147;-64
2021/01/16 07:37:35;;;;;;;13.10;5.97;;;;;;;;;;1791751;80;21191;-62
2021/01/16 07:40:03;;;;;;;12.53;5.30;;;;;;;;;;1780790;80;21555;-62
2021/01/16 07:42:29;;;;;;;11.60;5.78;;;;;;;;;;1771281;81;21125;-63
2021/01/16 07:45:00;;;;;;;10.68;5.42;;;;;;;;;;1743316;81;21156;-63
2021/01/16 07:47:26;;;;;;;12.43;5.50;;;;;;;;;;1764848;81;21164;-63
2021/01/16 07:49:53;;;;;;;13.00;5.20;;;;;;;;;;1771116;81;21148;-63
2021/01/16 07:52:21;;;;;;;9.70;4.95;;;;;;;;;;1770663;81;21287;-62
2021/01/16 07:54:47;;;;;;;10.28;5.40;;;;;;;;;;1769782;81;21188;-63
2021/01/16 07:57:13;;;;;;;8.25;5.17;;;;;;;;;;1770776;81;21521;-63
2021/01/16 07:59:41;;;;;;;11.33;5.62;;;;;;;;;;1770536;81;21121;-63
2021/01/16 08:02:26;;;;;;;11.73;5.15;;;;;;;;;;1770541;81;21560;-63
2021/01/16 08:04:57;;;;;;;9.65;5.55;;;;;;;;;;1770702;81;21553;-63
2021/01/16 08:07:25;;;;;;;12.10;5.60;;;;;;;;;;1770725;81;21117;-63
2021/01/16 08:09:55;;;;;;;10.78;5.45;;;;;;;;;;1766123;81;21157;-63
2021/01/16 08:12:26;;;;;;;12.20;5.33;;;;;;;;;;1770483;81;21157;-64
2021/01/16 08:14:53;;;;;;;9.03;5.03;;;;;;;;;;1770563;81;21267;-64
2021/01/16 08:17:26;;;;;;;8.55;4.90;;;;;;;;;;1770723;81;21144;-64
2021/01/16 08:19:56;;;;;;;8.68;5.10;;;;;;;;;;1770499;81;21161;-63
2021/01/16 08:22:23;;;;;;;12.20;5.65;;;;;;;;;;1768775;81;21102;-64
2021/01/16 08:25:01;;;;;;;8.73;5.37;;;;;;;;;;1770643;81;21561;-64
2021/01/16 08:27:24;;;;;;;7.22;4.83;;;;;;;;;;1769998;81;21133;-64
2021/01/16 08:29:51;;;;;;;8.00;4.60;;;;;;;;;;1770682;81;21144;-63
2021/01/16 08:32:17;;;;;;;11.48;4.80;;;;;;;;;;1770645;81;21145;-63
2021/01/16 08:34:56;;;;;;;11.60;5.12;;;;;;;;;;1770467;81;21703;-64
2021/01/16 08:37:29;;;;;;;9.53;4.75;;;;;;;;;;1770519;81;21284;-63
2021/01/16 08:39:56;;;;;;;9.43;5.10;;;;;;;;;;1770150;81;21294;-63
2021/01/16 08:42:25;;;;;;;9.95;5.55;;;;;;;;;;1770613;81;21565;-63
2021/01/16 08:44:51;;;;;;;7.92;4.97;;;;;;;;;;1770627;81;21298;-63
2021/01/16 08:47:17;;;;;;;7.92;4.95;;;;;;;;;;1770630;81;21159;-64
2021/01/16 08:49:44;;;;;;;10.38;5.62;;;;;;;;;;1770683;81;21282;-63
2021/01/16 08:52:10;;;;;;;7.00;4.50;;;;;;;;;;1770524;81;21160;-63
2021/01/16 08:54:36;;;;;;;9.08;5.58;;;;;;;;;;1770610;81;21128;-63
2021/01/16 08:57:04;;;;;;;9.00;5.08;;;;;;;;;;1770621;81;21144;-63
2021/01/16 08:59:31;;;;;;;8.95;5.45;;;;;;;;;;1770590;81;21176;-64
2021/01/16 09:02:07;;;;;;;10.90;5.53;;;;;;;;;;1770608;81;21695;-64
2021/01/16 09:04:35;;;;;;;8.50;5.45;;;;;;;;;;1770591;81;21291;-64
2021/01/16 09:07:12;;;;;;;8.80;5.15;;;;;;;;;;1769980;81;21318;-64
2021/01/16 09:09:38;;;;;;;8.78;5.15;;;;;;;;;;1770476;81;21298;-64
2021/01/16 09:12:06;;;;;;;9.05;5.42;;;;;;;;;;1770592;81;21195;-63
2021/01/16 09:14:33;;;;;;;7.78;4.95;;;;;;;;;;1769643;81;21168;-63
2021/01/16 09:17:01;;;;;;;8.38;5.28;;;;;;;;;;1770561;81;21741;-64
2021/01/16 09:19:30;;;;;;;8.65;5.22;;;;;;;;;;1761349;81;21168;-64
2021/01/16 09:22:15;;;;;;;9.13;5.28;;;;;;;;;;1770578;81;21278;-64
2021/01/16 09:24:41;;;;;;;10.48;5.33;;;;;;;;;;1770596;81;21153;-63
2021/01/16 09:27:09;;;;;;;8.78;5.17;;;;;;;;;;1770506;81;21310;-64
2021/01/16 09:29:35;;;;;;;7.50;4.70;;;;;;;;;;1768294;81;21152;-64
2021/01/16 09:32:02;;;;;;;9.63;5.10;;;;;;;;;;1770594;81;21585;-64
2021/01/16 09:34:30;;;;;;;9.10;5.22;;;;;;;;;;1770496;81;21144;-63
2021/01/16 09:36:56;;;;;;;8.43;5.30;;;;;;;;;;1770230;81;21157;-63
2021/01/16 09:39:23;;;;;;;8.50;5.03;;;;;;;;;;1770563;81;21144;-64
2021/01/16 09:41:51;;;;;;;8.43;5.35;;;;;;;;;;1777791;81;21121;-64
2021/01/16 09:44:35;;;;;;;9.18;4.95;;;;;;;;;;1777674;81;21560;-64
2021/01/16 09:47:01;;;;;;;10.65;5.40;;;;;;;;;;1777786;81;21591;-63
2021/01/16 09:49:29;;;;;;;7.62;4.87;;;;;;;;;;1777765;81;21160;-64
2021/01/16 09:51:57;;;;;;;8.40;5.05;;;;;;;;;;1775340;80;21137;-63
2021/01/16 09:54:23;;;;;;;7.12;5.10;;;;;;;;;;1776607;80;21584;-64
2021/01/16 09:56:50;;;;;;;9.68;5.67;;;;;;;;;;1755814;81;21155;-64
2021/01/16 09:59:23;;;;;;;10.65;5.33;;;;;;;;;;1777655;81;21537;-64
2021/01/16 10:02:06;;;;;;;9.88;5.35;;;;;;;;;;1777704;81;21112;-64
2021/01/16 10:04:32;;;;;;;7.80;5.08;;;;;;;;;;1777682;81;21588;-64
2021/01/16 10:07:00;;;;;;;9.80;5.40;;;;;;;;;;1755703;81;21171;-63
2021/01/16 10:09:26;;;;;;;9.90;5.03;;;;;;;;;;1776715;80;21152;-63
2021/01/16 10:11:52;;;;;;;7.90;5.47;;;;;;;;;;1777680;81;21545;-64
2021/01/16 10:14:19;;;;;;;7.70;4.97;;;;;;;;;;1777558;80;21108;-64
2021/01/16 10:16:46;;;;;;;7.22;4.92;;;;;;;;;;1777642;81;21310;-64
2021/01/16 10:19:12;;;;;;;8.33;5.28;;;;;;;;;;1777531;81;21145;-64
2021/01/16 10:21:46;;;;;;;10.58;5.70;;;;;;;;;;1777649;81;21282;-63
2021/01/16 10:24:14;;;;;;;7.08;4.67;;;;;;;;;;1763574;80;21164;-64
2021/01/16 10:26:40;;;;;;;7.72;5.05;;;;;;;;;;1776719;80;21557;-64
2021/01/16 10:29:08;;;;;;;9.15;5.05;;;;;;;;;;1777658;81;21305;-64
2021/01/16 10:31:34;;;;;;;7.65;5.40;;;;;;;;;;1777675;81;21113;-64
2021/01/16 10:34:12;;;;;;;8.05;5.12;;;;;;;;;;1777540;81;21139;-64
2021/01/16 10:36:41;;;;;;;9.38;5.37;;;;;;;;;;1777745;81;21285;-64
2021/01/16 10:39:11;;;;;;;6.33;4.95;;;;;;;;;;1777530;80;21295;-64
2021/01/16 10:41:38;;;;;;;8.25;5.03;;;;;;;;;;1777632;80;21306;-64
2021/01/16 10:44:06;;;;;;;8.10;5.03;;;;;;;;;;1777551;81;21140;-64
2021/01/16 10:46:36;;;;;;;8.60;5.50;;;;;;;;;;1777541;80;21144;-63
2021/01/16 10:49:04;;;;;;;8.15;5.40;;;;;;;;;;1777541;81;21139;-63
2021/01/16 10:51:30;;;;;;;9.40;5.65;;;;;;;;;;1773754;80;21152;-63
2021/01/16 10:53:57;;;;;;;7.17;5.15;;;;;;;;;;1755899;81;21116;-63
2021/01/16 10:56:25;;;;;;;7.80;5.00;;;;;;;;;;1777542;81;21140;-63
2021/01/16 10:58:51;;;;;;;8.35;5.70;;;;;;;;;;1776567;80;21553;-64
2021/01/16 11:01:19;;;;;;;7.50;4.90;;;;;;;;;;1755851;81;21148;-63
2021/01/16 11:03:45;;;;;;;8.43;5.42;;;;;;;;;;1775057;80;21140;-63
2021/01/16 11:06:11;;;;;;;7.87;5.53;;;;;;;;;;1755867;81;21551;-63
2021/01/16 11:08:38;;;;;;;7.95;5.25;;;;;;;;;;1777647;81;21148;-64
2021/01/16 11:11:06;;;;;;;7.90;5.35;;;;;;;;;;1777519;81;21164;-63
2021/01/16 11:13:32;;;;;;;8.13;5.53;;;;;;;;;;1767050;80;21156;-64
2021/01/16 11:16:12;;;;;;;8.48;5.60;;;;;;;;;;1777740;80;21548;-64
2021/01/16 11:18:38;;;;;;;8.20;5.33;;;;;;;;;;1776819;80;21148;-64
2021/01/16 11:21:05;;;;;;;8.88;5.92;;;;;;;;;;1777534;81;21109;-63
2021/01/16 11:23:33;;;;;;;7.85;5.22;;;;;;;;;;1777809;81;21164;-64
2021/01/16 11:26:06;;;;;;;8.40;5.17;;;;;;;;;;1777591;81;21144;-63
2021/01/16 11:28:34;;;;;;;9.28;5.35;;;;;;;;;;1777792;81;21679;-64
2021/01/16 11:31:05;;;;;;;6.97;5.42;;;;;;;;;;1775819;80;21533;-64
2021/01/16 11:33:31;;;;;;;7.08;5.10;;;;;;;;;;1777702;80;21140;-64
2021/01/16 11:36:05;;;;;;;8.40;5.17;;;;;;;;;;1777773;81;21140;-64
2021/01/16 11:38:38;;;;;;;8.03;5.65;;;;;;;;;;1777801;81;21160;-63
2021/01/16 11:41:04;;;;;;;6.80;4.87;;;;;;;;;;1782052;80;21667;-63
2021/01/16 11:43:31;;;;;;;8.30;5.30;;;;;;;;;;1786043;80;21587;-64
2021/01/16 11:46:00;;;;;;;6.87;5.10;;;;;;;;;;1786141;80;21152;-64
2021/01/16 11:48:26;;;;;;;7.78;5.35;;;;;;;;;;1786022;80;21182;-63
2021/01/16 11:50:53;;;;;;;7.85;5.30;;;;;;;;;;1786027;80;21185;-63
2021/01/16 11:53:19;;;;;;;6.55;4.92;;;;;;;;;;1786023;80;21147;-63
2021/01/16 11:55:45;;;;;;;8.08;5.60;;;;;;;;;;1786017;80;21164;-63
2021/01/16 11:58:11;;;;;;;6.65;5.40;;;;;;;;;;1785929;80;21139;-63
2021/01/16 12:00:37;;;;;;;9.43;5.90;;;;;;;;;;1786009;80;21155;-64
2021/01/16 12:03:04;;;;;;;6.97;5.22;;;;;;;;;;1786012;80;21168;-63
2021/01/16 12:05:30;;;;;;;6.95;5.22;;;;;;;;;;1786119;80;21148;-63
2021/01/16 12:07:56;;;;;;;6.87;5.60;;;;;;;;;;1785986;80;21547;-63
2021/01/16 12:10:24;;;;;;;6.90;5.22;;;;;;;;;;1785882;80;21167;-63
2021/01/16 12:12:51;;;;;;;7.08;5.35;;;;;;;;;;1786006;80;21116;-64
2021/01/16 12:15:18;;;;;;;7.53;5.67;;;;;;;;;;1785999;80;21603;-64
2021/01/16 12:17:45;;;;;;;7.55;5.50;;;;;;;;;;1785912;80;21155;-63
2021/01/16 12:20:12;;;;;;;7.58;5.35;;;;;;;;;;1785968;80;21184;-64
2021/01/16 12:22:38;;;;;;;6.85;5.17;;;;;;;;;;1785997;80;21599;-63
2021/01/16 12:25:06;;;;;;;10.32;6.28;;;;;;;;;;1785901;80;21217;-63
2021/01/16 12:27:32;;;;;;;7.97;5.37;;;;;;;;;;1786020;80;21112;-63
2021/01/16 12:29:58;;;;;;;7.87;5.35;;;;;;;;;;1755421;80;21132;-63
2021/01/16 12:32:25;;;;;;;8.00;5.95;;;;;;;;;;1785901;80;21163;-63
2021/01/16 12:34:54;;;;;;;7.20;5.33;;;;;;;;;;1786001;80;21168;-63
2021/01/16 12:37:25;;;;;;;8.48;5.40;;;;;;;;;;1785895;80;21148;-63
2021/01/16 12:39:51;;;;;;;7.72;5.47;;;;;;;;;;1786059;80;21160;-63
2021/01/16 12:42:17;;;;;;;8.30;5.55;;;;;;;;;;1778038;80;21579;-63
2021/01/16 12:44:43;;;;;;;7.90;5.62;;;;;;;;;;1777836;81;21120;-63
2021/01/16 12:47:11;;;;;;;7.85;5.35;;;;;;;;;;1777746;81;21116;-63
2021/01/16 12:49:38;;;;;;;10.05;5.55;;;;;;;;;;1777434;80;21151;-63
2021/01/16 12:52:04;;;;;;;8.13;6.33;;;;;;;;;;1777707;81;21595;-63
2021/01/16 12:54:30;;;;;;;6.83;5.58;;;;;;;;;;1777700;81;21691;-63
2021/01/16 12:56:56;;;;;;;8.10;5.55;;;;;;;;;;1777803;80;21159;-63
2021/01/16 12:59:22;;;;;;;7.53;5.15;;;;;;;;;;1777785;81;21175;-63
2021/01/16 13:01:51;;;;;;;8.05;5.45;;;;;;;;;;1777625;81;21159;-63
2021/01/16 13:04:18;;;;;;;7.72;5.65;;;;;;;;;;1777797;81;21314;-63
2021/01/16 13:06:44;;;;;;;7.20;5.30;;;;;;;;;;1777604;81;21105;-63
2021/01/16 13:09:10;;;;;;;8.75;5.70;;;;;;;;;;1777789;81;21290;-63
2021/01/16 13:11:38;;;;;;;7.78;5.78;;;;;;;;;;1777678;81;21636;-63
2021/01/16 13:14:04;;;;;;;9.03;5.47;;;;;;;;;;1777820;81;21164;-64
2021/01/16 13:16:30;;;;;;;6.67;5.35;;;;;;;;;;1777712;81;21745;-64
2021/01/16 13:19:00;;;;;;;8.80;5.60;;;;;;;;;;1777768;81;21148;-64
2021/01/16 13:24:23;;;;;;;8.38;5.62;;;;;;;;;;1824134;77;22912;-63
2021/01/16 13:26:51;;;;;;;7.70;5.50;;;;;;;;;;1828548;78;21275;-63
2021/01/16 13:29:18;;;;;;;7.17;5.05;;;;;;;;;;1828012;78;21177;-64
2021/01/16 13:31:45;;;;;;;6.12;4.85;;;;;;;;;;1828203;78;21299;-63
2021/01/16 13:34:14;;;;;;;9.28;5.60;;;;;;;;;;1828047;78;21180;-63
2021/01/16 13:36:41;;;;;;;8.30;5.25;;;;;;;;;;1828315;78;21144;-63
2021/01/16 13:39:15;;;;;;;7.67;5.30;;;;;;;;;;1828202;78;21705;-63
2021/01/16 13:41:45;;;;;;;8.95;5.60;;;;;;;;;;1828141;78;21578;-63
2021/01/16 13:44:16;;;;;;;8.73;5.92;;;;;;;;;;1828033;78;21712;-63
2021/01/16 13:46:43;;;;;;;6.90;5.40;;;;;;;;;;1827571;78;21145;-63
2021/01/16 13:49:11;;;;;;;9.63;6.20;;;;;;;;;;1828195;78;21322;-64
2021/01/16 13:51:38;;;;;;;6.45;4.90;;;;;;;;;;1827215;78;21181;-63
2021/01/16 13:54:05;;;;;;;9.48;5.33;;;;;;;;;;1828057;78;21572;-63
2021/01/16 13:56:42;;;;;;;6.87;5.37;;;;;;;;;;1828289;78;21290;-63
2021/01/16 13:59:09;;;;;;;6.70;5.22;;;;;;;;;;1828130;78;21282;-64
2021/01/16 14:01:37;;;;;;;8.30;6.00;;;;;;;;;;1828104;78;21121;-63
2021/01/16 14:04:03;;;;;;;8.00;5.17;;;;;;;;;;1828200;78;21176;-63
2021/01/16 14:06:31;;;;;;;7.75;5.42;;;;;;;;;;1828031;78;21640;-63
2021/01/16 14:08:57;;;;;;;7.25;5.70;;;;;;;;;;1825842;78;21129;-63
2021/01/16 14:11:24;;;;;;;7.28;5.10;;;;;;;;;;1828286;78;21152;-63
2021/01/16 14:13:50;;;;;;;6.80;5.10;;;;;;;;;;1828237;78;21326;-63
2021/01/16 14:16:18;;;;;;;7.75;5.28;;;;;;;;;;1828243;78;21176;-63
2021/01/16 14:18:44;;;;;;;6.45;5.08;;;;;;;;;;1827978;78;21176;-63
2021/01/16 14:21:14;;;;;;;8.40;5.55;;;;;;;;;;1827836;78;21184;-63
2021/01/16 14:23:40;;;;;;;7.95;5.65;;;;;;;;;;1824645;78;21548;-63
2021/01/16 14:26:17;;;;;;;7.12;5.10;;;;;;;;;;1823119;79;21568;-63
2021/01/16 14:28:45;;;;;;;7.05;4.95;;;;;;;;;;1823371;79;21121;-63
2021/01/16 14:31:14;;;;;;;6.72;5.28;;;;;;;;;;1822959;79;21614;-63
2021/01/16 14:33:40;;;;;;;8.25;5.17;;;;;;;;;;1822832;77;21576;-64
2021/01/16 14:36:19;;;;;;;7.05;5.47;;;;;;;;;;1822796;79;21156;-64
2021/01/16 14:39:04;;;;;;;8.30;5.58;;;;;;;;;;1822375;79;21274;-63
2021/01/16 14:41:40;;;;;;;7.60;5.30;;;;;;;;;;1822490;79;21141;-64
2021/01/16 14:44:07;;;;;;;8.30;5.25;;;;;;;;;;1822268;79;21160;-64
2021/01/16 14:46:34;;;;;;;6.78;5.25;;;;;;;;;;1822673;79;21564;-64
2021/01/16 14:49:00;;;;;;;8.33;5.67;;;;;;;;;;1822453;79;21291;-64
2021/01/16 14:51:27;;;;;;;8.98;5.75;;;;;;;;;;1822306;79;21176;-64
2021/01/16 14:54:00;;;;;;;7.10;5.25;;;;;;;;;;1822408;79;21650;-64
2021/01/16 14:56:27;;;;;;;8.00;5.60;;;;;;;;;;1822733;79;21156;-64
2021/01/16 14:59:00;;;;;;;8.63;5.45;;;;;;;;;;1822414;79;21597;-63
2021/01/16 15:01:39;;;;;;;8.37;5.70;;;;;;;;;;1822933;79;21149;-63
2021/01/16 15:04:05;;;;;;;7.40;5.28;;;;;;;;;;1822481;79;21271;-63
2021/01/16 15:06:51;;;;;;;7.72;5.80;;;;;;;;;;1822688;79;21152;-63
2021/01/16 15:09:39;;;;;;;7.20;5.05;;;;;;;;;;1822716;79;21165;-64
2021/01/16 15:12:07;;;;;;;7.85;5.50;;;;;;;;;;1822325;79;21310;-64
2021/01/16 15:14:38;;;;;;;6.72;5.05;;;;;;;;;;1821732;79;21580;-63
2021/01/16 15:17:02;;;;;;;6.75;5.10;;;;;;;;;;1821188;79;21275;-65
2021/01/16 15:19:28;;;;;;;7.58;5.65;;;;;;;;;;1816614;79;21105;-68
2021/01/16 15:21:55;;;;;;;7.62;6.00;;;;;;;;;;1822758;79;21180;-69
2021/01/16 15:24:21;;;;;;;9.78;6.03;;;;;;;;;;1819415;79;21597;-64
2021/01/16 15:26:47;;;;;;;8.98;6.05;;;;;;;;;;1809097;79;21209;-65
2021/01/16 15:29:14;;;;;;;10.75;6.17;;;;;;;;;;1812936;79;21116;-68
2021/01/16 15:31:40;;;;;;;11.90;6.60;;;;;;;;;;1817219;79;21159;-64
2021/01/16 15:34:06;;;;;;;8.73;6.58;;;;;;;;;;1817513;79;21148;-63
2021/01/16 15:36:32;;;;;;;11.10;6.42;;;;;;;;;;1808073;79;21604;-63
2021/01/16 15:38:59;;;;;;;11.03;5.85;;;;;;;;;;1800263;79;21176;-65
2021/01/16 15:41:33;;;;;;;9.63;6.65;;;;;;;;;;1792129;79;21125;-64
2021/01/16 15:43:59;;;;;;;12.93;6.22;;;;;;;;;;1802902;79;21116;-64
2021/01/16 15:46:25;;;;;;;9.90;6.10;;;;;;;;;;1818652;79;21135;-64
2021/01/16 15:48:51;;;;;;;10.28;6.53;;;;;;;;;;1817702;79;21104;-65
2021/01/16 15:51:31;;;;;;;8.68;6.00;;;;;;;;;;1817371;79;21595;-62
2021/01/16 15:53:58;;;;;;;12.47;6.20;;;;;;;;;;1817036;79;21603;-63
2021/01/16 15:56:26;;;;;;;9.30;6.42;;;;;;;;;;1794469;79;21128;-63
2021/01/16 15:58:54;;;;;;;10.28;6.35;;;;;;;;;;1786189;80;21158;-63
2021/01/16 16:01:20;;;;;;;9.95;5.67;;;;;;;;;;1787050;80;21114;-64
2021/01/16 16:03:51;;;;;;;8.08;5.53;;;;;;;;;;1786915;80;21161;-63
2021/01/16 16:06:17;;;;;;;9.95;5.92;;;;;;;;;;1777295;80;21181;-63
2021/01/16 16:08:43;;;;;;;10.95;5.87;;;;;;;;;;1793201;79;21120;-63
2021/01/16 16:11:11;;;;;;;10.65;6.15;;;;;;;;;;1756101;80;21091;-62
2021/01/16 16:13:37;;;;;;;7.92;5.53;;;;;;;;;;1797097;79;21147;-62
2021/01/16 16:16:04;;;;;;;7.92;5.47;;;;;;;;;;1817222;79;21136;-64
2021/01/16 16:18:31;;;;;;;9.43;5.85;;;;;;;;;;1810456;79;21099;-64
2021/01/16 16:20:57;;;;;;;8.00;5.62;;;;;;;;;;1805895;79;21179;-64
2021/01/16 16:23:23;;;;;;;10.00;6.20;;;;;;;;;;1816992;79;21164;-65
2021/01/16 16:25:51;;;;;;;9.58;6.03;;;;;;;;;;1823166;79;21144;-63
2021/01/16 16:28:18;;;;;;;11.12;5.78;;;;;;;;;;1802492;79;21138;-64
2021/01/16 16:30:44;;;;;;;11.60;5.90;;;;;;;;;;1757480;82;21164;-64
2021/01/16 16:33:10;;;;;;;10.05;5.85;;;;;;;;;;1757476;80;21561;-65
2021/01/16 16:35:37;;;;;;;13.00;6.28;;;;;;;;;;1755174;82;21129;-65
2021/01/16 16:38:06;;;;;;;10.15;5.80;;;;;;;;;;1749633;82;21200;-63
2021/01/16 16:40:33;;;;;;;10.28;5.28;;;;;;;;;;1737926;82;21597;-65
2021/01/16 16:43:00;;;;;;;13.93;6.53;;;;;;;;;;1764482;80;21198;-64
2021/01/16 16:45:28;;;;;;;10.08;5.40;;;;;;;;;;1785505;80;21133;-66
2021/01/16 16:47:58;;;;;;;14.53;5.97;;;;;;;;;;1767725;80;21139;-65
2021/01/16 16:50:24;;;;;;;11.18;5.37;;;;;;;;;;1774243;80;21159;-64
2021/01/16 16:52:51;;;;;;;11.85;5.78;;;;;;;;;;1786137;79;21108;-65
2021/01/16 16:55:18;;;;;;;16.25;6.00;;;;;;;;;;1755666;80;21175;-65
2021/01/16 16:57:45;;;;;;;10.03;4.92;;;;;;;;;;1763463;81;21136;-66
2021/01/16 17:00:12;;;;;;;7.75;4.97;;;;;;;;;;1763031;81;21182;-65
2021/01/16 17:02:39;;;;;;;14.53;5.42;;;;;;;;;;1763927;81;21171;-72
2021/01/16 17:05:06;;;;;;;10.05;5.35;;;;;;;;;;1760024;80;21573;-67
2021/01/16 17:07:33;;;;;;;12.93;5.85;;;;;;;;;;1710428;82;21165;-67
2021/01/16 17:09:59;;;;;;;11.70;6.45;;;;;;;;;;1752996;82;21095;-67
2021/01/16 17:19:28;;;;;;;13.25;9.55;;;;;;;;;;1780525;79;22359;-81
2021/01/16 17:21:54;;;;;;;12.28;8.43;;;;;;;;;;1752514;82;21226;-83
2021/01/16 17:24:22;;;;;;;14.53;9.05;;;;;;;;;;1747876;82;21150;-78
2021/01/16 17:26:49;;;;;;;12.60;7.97;;;;;;;;;;1753753;82;21188;-80
2021/01/16 17:29:15;;;;;;;11.22;7.45;;;;;;;;;;1753568;82;21151;-80
2021/01/16 17:31:41;;;;;;;11.28;7.75;;;;;;;;;;1753817;82;21127;-80
2021/01/16 17:34:07;;;;;;;13.43;7.95;;;;;;;;;;1742763;82;21175;-79
2021/01/16 17:36:43;;;;;;;13.78;8.00;;;;;;;;;;1741793;82;21115;-80
2021/01/16 17:39:09;;;;;;;11.65;7.40;;;;;;;;;;1749313;82;21135;-79
2021/01/16 17:41:36;;;;;;;14.38;7.60;;;;;;;;;;1749953;82;21199;-79
2021/01/16 17:44:02;;;;;;;15.83;7.58;;;;;;;;;;1752212;82;21151;-79
2021/01/16 17:46:39;;;;;;;13.43;6.95;;;;;;;;;;1735418;82;21225;-80
2021/01/16 17:49:06;;;;;;;16.35;7.87;;;;;;;;;;1713090;82;21171;-79
2021/01/16 17:51:32;;;;;;;15.60;7.78;;;;;;;;;;1693000;84;21588;-78
2021/01/16 17:53:58;;;;;;;16.93;7.90;;;;;;;;;;1695792;83;21626;-83
2021/01/16 17:56:24;;;;;;;18.27;8.13;;;;;;;;;;1695015;83;21166;-87
2021/01/16 17:58:53;;;;;;;18.45;7.92;;;;;;;;;;1691561;84;21606;-85
2021/01/16 18:01:18;;;;;;;14.40;6.90;;;;;;;;;;1684319;84;21594;-85
2021/01/16 18:03:45;;;;;;;13.72;6.20;;;;;;;;;;1694519;84;21172;-82
2021/01/16 18:06:13;;;;;;;11.78;6.17;;;;;;;;;;1717325;83;21167;-82
2021/01/16 18:08:39;;;;;;;10.10;5.45;;;;;;;;;;1714253;83;21167;-84
2021/01/16 18:11:05;;;;;;;10.75;5.65;;;;;;;;;;1693111;83;21118;-83
2021/01/16 18:13:31;;;;;;;9.55;4.83;;;;;;;;;;1657672;85;21175;-82
2021/01/16 18:15:57;;;;;;;8.93;4.03;;;;;;;;;;1693163;84;21162;-84
2021/01/16 18:18:24;;;;;;;9.73;5.08;;;;;;;;;;1714094;82;21159;-85
2021/01/16 18:20:50;;;;;;;11.97;5.03;;;;;;;;;;1733638;81;21164;-84
2021/01/16 18:23:16;;;;;;;13.45;6.08;;;;;;;;;;1720798;82;21143;-81
2021/01/16 18:25:42;;;;;;;13.40;5.95;;;;;;;;;;1716151;82;21171;-80
2021/01/16 18:28:08;;;;;;;11.45;5.25;;;;;;;;;;1727683;82;21619;-80
2021/01/16 18:30:35;;;;;;;15.70;5.53;;;;;;;;;;1713115;82;21156;-80
2021/01/16 18:33:01;;;;;;;11.65;5.42;;;;;;;;;;1704375;84;21615;-81
2021/01/16 18:35:27;;;;;;;12.55;5.78;;;;;;;;;;1704560;84;21650;-80
2021/01/16 18:37:56;;;;;;;16.90;6.65;;;;;;;;;;1702671;84;21144;-80
2021/01/16 18:40:22;;;;;;;12.95;5.85;;;;;;;;;;1703345;84;21615;-80
2021/01/16 18:42:49;;;;;;;12.60;5.83;;;;;;;;;;1710465;82;21151;-81
2021/01/16 18:45:16;;;;;;;10.98;4.75;;;;;;;;;;1725425;82;21120;-80
2021/01/16 18:47:50;;;;;;;9.98;4.72;;;;;;;;;;1710381;84;21156;-81
2021/01/16 18:50:13;;;;;;;12.43;6.00;;;;;;;;;;1722201;82;21616;-82
2021/01/16 18:52:39;;;;;;;13.08;5.95;;;;;;;;;;1715119;82;21172;-82
2021/01/16 18:55:05;;;;;;;13.18;6.70;;;;;;;;;;1710494;84;21163;-81
2021/01/16 18:57:39;;;;;;;18.07;6.70;;;;;;;;;;1714051;82;21180;-81
2021/01/16 19:00:12;;;;;;;17.77;7.20;;;;;;;;;;1650923;86;21140;-83
2021/01/16 19:02:41;;;;;;;14.58;5.97;;;;;;;;;;1677355;84;21501;-81
2021/01/16 19:05:09;;;;;;;18.57;6.78;;;;;;;;;;1737913;82;21153;-81
2021/01/16 19:07:36;;;;;;;15.63;5.03;;;;;;;;;;1739727;82;21156;-80
2021/01/16 19:10:02;;;;;;;9.15;4.53;;;;;;;;;;1739700;82;21203;-81
2021/01/16 19:12:29;;;;;;;11.63;4.67;;;;;;;;;;1727757;82;21159;-81
2021/01/16 19:14:56;;;;;;;10.10;5.17;;;;;;;;;;1714413;82;21152;-82
2021/01/16 19:17:22;;;;;;;10.15;4.08;;;;;;;;;;1688604;84;21219;-80
2021/01/16 19:19:48;;;;;;;11.22;4.72;;;;;;;;;;1677101;83;21151;-81
2021/01/16 19:22:15;;;;;;;9.38;4.30;;;;;;;;;;1710289;84;21132;-80
2021/01/16 19:24:41;;;;;;;9.63;4.72;;;;;;;;;;1715068;82;21203;-81
2021/01/16 19:27:07;;;;;;;7.20;3.17;;;;;;;;;;1726668;81;21196;-81
2021/01/16 19:29:33;;;;;;;12.35;4.53;;;;;;;;;;1721529;82;21156;-80
2021/01/16 19:31:59;;;;;;;14.85;4.72;;;;;;;;;;1709770;84;21223;-80
2021/01/16 19:34:25;;;;;;;12.58;5.05;;;;;;;;;;1709923;84;21152;-80
2021/01/16 19:36:52;;;;;;;13.30;5.08;;;;;;;;;;1737737;81;21169;-79
2021/01/16 19:39:18;;;;;;;13.78;5.40;;;;;;;;;;1718089;82;21623;-78
2021/01/16 19:41:46;;;;;;;13.20;5.72;;;;;;;;;;1709318;84;21683;-79
2021/01/16 19:44:13;;;;;;;13.70;5.83;;;;;;;;;;1709881;84;21203;-79
2021/01/16 19:46:39;;;;;;;16.55;6.80;;;;;;;;;;1710290;84;21164;-80
2021/01/16 19:49:05;;;;;;;11.60;4.80;;;;;;;;;;1710911;82;21172;-79
2021/01/16 19:51:33;;;;;;;11.43;5.22;;;;;;;;;;1710521;84;21172;-79
2021/01/16 19:53:59;;;;;;;11.48;5.67;;;;;;;;;;1710129;83;21152;-80
2021/01/16 19:56:26;;;;;;;14.87;6.03;;;;;;;;;;1712352;82;21148;-80
2021/01/16 19:58:52;;;;;;;8.63;5.03;;;;;;;;;;1710404;83;21156;-79
2021/01/16 20:01:18;;;;;;;12.23;5.28;;;;;;;;;;1710441;83;21155;-80
2021/01/16 20:03:46;;;;;;;13.22;5.95;;;;;;;;;;1723078;82;21140;-80
2021/01/16 20:06:14;;;;;;;10.32;4.40;;;;;;;;;;1739684;82;21160;-80
2021/01/16 20:08:40;;;;;;;14.40;5.97;;;;;;;;;;1739669;82;21290;-79
2021/01/16 20:11:06;;;;;;;11.12;6.08;;;;;;;;;;1739654;82;21172;-80
2021/01/16 20:13:32;;;;;;;13.53;6.87;;;;;;;;;;1712865;82;21587;-80
2021/01/16 20:16:01;;;;;;;15.00;7.40;;;;;;;;;;1710582;83;21140;-80
2021/01/16 20:18:28;;;;;;;20.30;8.90;;;;;;;;;;1713463;82;21705;-81
2021/01/16 20:20:55;;;;;;;15.35;8.53;;;;;;;;;;1730738;82;21177;-79
2021/01/16 20:23:23;;;;;;;17.92;8.60;;;;;;;;;;1753940;82;21563;-80
2021/01/16 20:25:49;;;;;;;18.80;8.78;;;;;;;;;;1715299;84;21654;-80
2021/01/16 20:28:15;;;;;;;19.90;11.15;;;;;;;;;;1715589;84;21183;-80
2021/01/16 20:30:41;;;;;;;20.60;8.30;;;;;;;;;;1691841;84;21166;-79
2021/01/16 20:33:08;;;;;;;19.92;8.65;;;;;;;;;;1723713;83;21184;-80
2021/01/16 20:35:34;;;;;;;14.18;7.20;;;;;;;;;;1723961;83;21337;-80
2021/01/16 20:38:05;;;;;;;19.40;7.28;;;;;;;;;;1735921;82;21211;-79
2021/01/16 20:40:28;;;;;;;18.12;8.43;;;;;;;;;;1752948;82;21217;-80
2021/01/16 20:42:59;;;;;;;17.12;6.55;;;;;;;;;;1753751;82;21143;-81
2021/01/16 20:45:22;;;;;;;20.25;8.35;;;;;;;;;;1715156;84;21598;-80
2021/01/16 20:47:50;;;;;;;20.52;8.88;;;;;;;;;;1713363;84;21162;-83
2021/01/16 20:50:17;;;;;;;18.05;8.55;;;;;;;;;;1715332;82;21162;-81
2021/01/16 20:52:43;;;;;;;19.90;8.10;;;;;;;;;;1714878;84;21352;-80
2021/01/16 20:55:10;;;;;;;15.90;7.85;;;;;;;;;;1715397;84;21661;-80
2021/01/16 20:57:36;;;;;;;17.73;7.10;;;;;;;;;;1715397;84;21635;-80
2021/01/16 21:00:04;;;;;;;15.45;7.47;;;;;;;;;;1714050;84;21163;-81
2021/01/16 21:02:30;;;;;;;19.67;7.92;;;;;;;;;;1724001;83;21183;-80
2021/01/16 21:04:56;;;;;;;19.00;8.05;;;;;;;;;;1723837;83;21272;-80
2021/01/16 21:07:22;;;;;;;18.10;7.20;;;;;;;;;;1723947;83;21729;-79
2021/01/16 21:09:48;;;;;;;14.80;7.40;;;;;;;;;;1723999;83;21191;-80
2021/01/16 21:12:15;;;;;;;14.45;6.62;;;;;;;;;;1723887;83;21135;-79
2021/01/16 21:14:41;;;;;;;14.53;6.08;;;;;;;;;;1748397;82;21151;-79
2021/01/16 21:17:07;;;;;;;15.15;6.05;;;;;;;;;;1715602;84;21163;-81
2021/01/16 21:19:34;;;;;;;13.43;6.40;;;;;;;;;;1720801;82;21170;-80